Aviation Digital Data Service (ADDS)

Output produced by METARs form (0052 UTC 21 November 2017)
found at http://www.aviationweather.gov/adds/metars/
 
EPWA 210030Z 27005KT 9000 FEW009 M00/M01 Q1011 R88/2///95 NOSIG
TAF EPWA 202330Z 2100/2124 25006KT 9999 BKN030 
     PROB40 
     TEMPO 2102/2108 3000 BR BKN007 
     BECMG 2118/2121 4000 BR 
     PROB40 2121/2124 1000 BR BKN004